Terminal Aerodrome Forecast
Issued by NWS

Home | Current Version | Previous Version | Text Only | Print | Product List | Glossary On
Versions: 1 2 3 4 5 6 7 8 9 10 11 12 13 14 15 16 17 18 19 20
039
FTUS43 KGRR 250540
TAFLAN
TAF
KLAN 250540Z 2506/2606 23006KT P6SM VCSH SCT050
     FM251500 27014G22KT P6SM VCSH BKN035
     FM260100 25005KT P6SM BKN080=

USA.gov is the U.S. government's official web portal to all federal, state and local government web resources and services.